Time;durP1;ratioP1;P1;durP2;ratioP2;P2;SDS_P1;SDS_P2;PMS_P1;PMS_P2;Temp;Humidity;BMP_temperature;BMP_pressure;BME280_temperature;BME280_humidity;BME280_pressure;Samples;Min_cycle;Max_cycle;Signal;HPM_P1;HPM_P2
2021/12/17 00:00:46;;;;;;;26.50;11.25;;;8.70;99.90;;;;;;5093633;28;20132;-68
2021/12/17 00:03:18;;;;;;;24.25;11.02;;;8.60;99.90;;;;;;5094921;28;20039;-68
2021/12/17 00:08:14;;;;;;;28.27;11.82;;;8.60;99.90;;;;;;5095310;28;20044;-68
2021/12/17 00:10:41;;;;;;;25.75;11.52;;;8.60;99.90;;;;;;5095164;28;20032;-68
2021/12/17 00:13:07;;;;;;;28.02;12.90;;;8.50;99.90;;;;;;5095253;28;20457;-69
2021/12/17 00:15:33;;;;;;;23.42;12.32;;;8.40;99.90;;;;;;5094545;28;20109;-68
2021/12/17 00:18:06;;;;;;;23.05;11.25;;;8.40;99.90;;;;;;5094828;28;20036;-68
2021/12/17 00:40:08;;;;;;;22.45;10.82;;;8.50;99.90;;;;;;5094750;28;20059;-69
2021/12/17 00:40:26;;;;;;;21.08;11.00;;;8.50;99.90;;;;;;5094978;28;20039;-69
2021/12/17 00:48:35;;;;;;;18.48;9.10;;;8.60;99.90;;;;;;5094470;28;20216;-68
2021/12/17 00:53:31;;;;;;;16.60;8.88;;;8.60;99.90;;;;;;5094551;28;20055;-68
2021/12/17 00:55:57;;;;;;;20.67;9.57;;;8.50;99.90;;;;;;5092898;28;20040;-69
2021/12/17 00:58:23;;;;;;;23.67;10.95;;;8.50;99.90;;;;;;5093446;28;20425;-68
2021/12/17 01:00:49;;;;;;;22.52;11.15;;;8.40;99.90;;;;;;5094211;28;20331;-68
2021/12/17 01:03:15;;;;;;;24.83;11.45;;;8.40;99.90;;;;;;5093155;28;20043;-68
2021/12/17 01:05:41;;;;;;;25.10;11.85;;;8.30;99.90;;;;;;5093396;28;20040;-68
2021/12/17 01:08:07;;;;;;;29.35;12.02;;;8.30;99.90;;;;;;5094420;28;20036;-68
2021/12/17 01:10:36;;;;;;;23.15;12.27;;;8.30;99.90;;;;;;5094288;28;20131;-68
2021/12/17 01:13:04;;;;;;;24.60;12.43;;;8.30;99.90;;;;;;5094049;28;20634;-68
2021/12/17 01:15:31;;;;;;;19.23;9.98;;;8.30;99.90;;;;;;5092312;28;20048;-68
2021/12/17 01:18:02;;;;;;;21.02;9.48;;;8.20;99.90;;;;;;5094250;28;20176;-68
2021/12/17 01:23:14;;;;;;;23.27;10.52;;;8.20;99.90;;;;;;5093953;28;20046;-68
2021/12/17 01:36:52;;;;;;;27.73;11.95;;;8.30;99.90;;;;;;5092133;28;20091;-68
2021/12/17 01:42:05;;;;;;;25.55;10.95;;;8.30;99.90;;;;;;5093292;28;20040;-68
2021/12/17 01:44:33;;;;;;;19.95;10.02;;;8.30;99.90;;;;;;5093454;28;20139;-68
2021/12/17 01:46:59;;;;;;;17.08;9.00;;;8.30;99.90;;;;;;5093057;28;20036;-68
2021/12/17 02:00:19;;;;;;;20.08;9.68;;;8.40;99.90;;;;;;5095891;28;20043;-68
2021/12/17 02:02:50;;;;;;;20.42;10.50;;;8.40;99.90;;;;;;5097583;28;20071;-68
2021/12/17 02:05:16;;;;;;;19.67;10.38;;;8.40;99.90;;;;;;5097211;28;20357;-68
2021/12/17 02:07:43;;;;;;;19.83;10.82;;;8.40;99.90;;;;;;5096552;28;20050;-68
2021/12/17 02:29:08;;;;;;;22.38;10.55;;;8.30;99.90;;;;;;5097367;28;20040;-69
2021/12/17 02:31:34;;;;;;;21.55;10.48;;;8.30;99.90;;;;;;5097141;28;20074;-68
2021/12/17 02:34:20;;;;;;;18.42;9.38;;;8.30;99.90;;;;;;5097031;28;20051;-69
2021/12/17 02:36:46;;;;;;;19.13;9.82;;;8.30;99.90;;;;;;5096502;28;20059;-68
2021/12/17 02:47:07;;;;;;;23.85;10.77;;;8.40;99.90;;;;;;5096717;28;20052;-69
2021/12/17 02:49:34;;;;;;;22.52;11.05;;;8.40;99.90;;;;;;5095707;28;20388;-69
2021/12/17 02:52:03;;;;;;;22.55;11.07;;;8.40;99.90;;;;;;5097067;28;20122;-69
2021/12/17 02:54:29;;;;;;;27.85;11.43;;;8.40;99.90;;;;;;5096783;28;20051;-69
2021/12/17 02:56:55;;;;;;;23.77;10.88;;;8.40;99.90;;;;;;5095075;28;20093;-69
2021/12/17 02:59:22;;;;;;;25.00;11.73;;;8.40;99.90;;;;;;5096558;28;20039;-68
2021/12/17 03:01:49;;;;;;;25.83;11.75;;;8.40;99.90;;;;;;5095537;28;20069;-68
2021/12/17 03:04:17;;;;;;;32.22;12.98;;;8.40;99.90;;;;;;5096629;28;20088;-68
2021/12/17 03:06:43;;;;;;;22.58;11.90;;;8.30;99.90;;;;;;5095877;28;20465;-68
2021/12/17 03:09:09;;;;;;;25.08;12.55;;;8.50;99.90;;;;;;5096638;28;20051;-68
2021/12/17 03:11:35;;;;;;;29.42;12.80;;;8.40;99.90;;;;;;5095454;28;20044;-68
2021/12/17 03:14:00;;;;;;;30.27;12.80;;;8.40;99.90;;;;;;5096427;28;20066;-68
2021/12/17 03:16:33;;;;;;;31.98;13.15;;;8.40;99.90;;;;;;5095515;28;20051;-68
2021/12/17 03:19:10;;;;;;;29.60;12.38;;;8.40;99.90;;;;;;5096238;28;20040;-69
2021/12/17 03:24:22;;;;;;;30.13;13.57;;;8.40;99.90;;;;;;5096355;28;20066;-69
2021/12/17 03:26:48;;;;;;;29.05;13.43;;;8.40;99.90;;;;;;5095320;28;20044;-69
2021/12/17 03:29:14;;;;;;;34.13;13.18;;;8.40;99.90;;;;;;5095924;28;20040;-68
2021/12/17 03:31:40;;;;;;;34.83;13.27;;;8.40;99.90;;;;;;5096216;28;20112;-69
2021/12/17 03:34:20;;;;;;;32.70;12.00;;;8.40;99.90;;;;;;5095970;28;20453;-69
2021/12/17 03:36:48;;;;;;;26.15;11.32;;;8.40;99.90;;;;;;5095398;28;20044;-68
2021/12/17 03:39:15;;;;;;;28.15;10.93;;;8.40;99.90;;;;;;5095698;28;20587;-69
2021/12/17 03:41:47;;;;;;;27.90;10.15;;;8.40;99.90;;;;;;5095753;28;20036;-69
2021/12/17 03:44:13;;;;;;;25.00;10.88;;;8.40;99.90;;;;;;5095719;28;20044;-69
2021/12/17 03:46:39;;;;;;;23.33;10.52;;;8.40;99.90;;;;;;5095277;28;20118;-69
2021/12/17 03:49:05;;;;;;;20.63;9.85;;;8.40;99.90;;;;;;5096021;28;20157;-69
2021/12/17 03:51:30;;;;;;;20.40;9.32;;;8.40;99.90;;;;;;5095694;28;20115;-69
2021/12/17 03:53:58;;;;;;;20.33;10.25;;;8.40;99.90;;;;;;5094652;28;20032;-69
2021/12/17 03:56:26;;;;;;;19.10;9.25;;;8.30;99.90;;;;;;5095061;28;20115;-69
2021/12/17 03:58:54;;;;;;;20.38;9.23;;;8.30;99.90;;;;;;5095544;28;20036;-68
2021/12/17 04:01:21;;;;;;;17.55;8.57;;;8.30;99.90;;;;;;5095165;28;20439;-69
2021/12/17 04:03:46;;;;;;;17.85;9.20;;;8.30;99.90;;;;;;5095538;28;20044;-69
2021/12/17 04:06:13;;;;;;;18.42;9.02;;;8.30;99.90;;;;;;5094827;28;20047;-69
2021/12/17 04:08:38;;;;;;;15.30;8.63;;;8.40;99.90;;;;;;5095199;28;20485;-69
2021/12/17 04:11:06;;;;;;;17.25;8.82;;;8.40;99.90;;;;;;5094957;28;20043;-69
2021/12/17 04:13:36;;;;;;;16.73;8.52;;;8.40;99.90;;;;;;5095313;28;20051;-69
2021/12/17 04:16:07;;;;;;;17.08;8.35;;;8.40;99.90;;;;;;5093504;28;20065;-69
2021/12/17 04:18:34;;;;;;;15.18;8.10;;;8.40;99.90;;;;;;5095078;28;20043;-69
2021/12/17 04:21:02;;;;;;;15.63;7.53;;;8.40;99.90;;;;;;5094219;28;20056;-69
2021/12/17 04:23:28;;;;;;;14.00;8.07;;;8.40;99.90;;;;;;5094908;28;20457;-70
2021/12/17 04:25:54;;;;;;;16.15;8.30;;;8.40;99.90;;;;;;5094241;28;20415;-69
2021/12/17 04:28:20;;;;;;;13.73;7.50;;;8.40;99.90;;;;;;5094878;28;20077;-68
2021/12/17 04:30:46;;;;;;;14.80;7.47;;;8.40;99.90;;;;;;5094525;28;20047;-69
2021/12/17 04:33:13;;;;;;;15.38;8.30;;;8.40;99.90;;;;;;5094630;28;20101;-69
2021/12/17 04:35:40;;;;;;;17.98;7.88;;;8.40;99.90;;;;;;5094189;28;20079;-69
2021/12/17 04:38:08;;;;;;;15.32;7.90;;;8.40;99.90;;;;;;5095074;28;20036;-69
2021/12/17 04:40:36;;;;;;;13.80;7.25;;;8.50;99.90;;;;;;5094394;28;20534;-69
2021/12/17 04:45:28;;;;;;;14.43;7.20;;;8.50;99.90;;;;;;5094023;28;20040;-69
2021/12/17 04:58:53;;;;;;;12.35;6.85;;;8.40;99.90;;;;;;5094639;28;20062;-68
2021/12/17 05:01:19;;;;;;;14.95;7.65;;;8.50;99.90;;;;;;5094301;28;20047;-68
2021/12/17 05:03:44;;;;;;;15.43;7.70;;;8.50;99.90;;;;;;5094364;28;20109;-68
2021/12/17 05:06:10;;;;;;;12.82;6.95;;;8.50;99.90;;;;;;5093955;28;20032;-68
2021/12/17 05:08:36;;;;;;;13.40;7.13;;;8.50;99.90;;;;;;5093994;28;20411;-69
2021/12/17 05:19:13;;;;;;;12.95;7.68;;;8.60;99.90;;;;;;5094156;28;20044;-69
2021/12/17 05:21:39;;;;;;;13.95;8.02;;;8.60;99.90;;;;;;5093886;28;20465;-69
2021/12/17 05:24:05;;;;;;;15.18;7.72;;;8.60;99.90;;;;;;5093779;28;20047;-69
2021/12/17 05:26:31;;;;;;;15.13;7.72;;;8.60;99.90;;;;;;5092929;28;20063;-68
2021/12/17 05:28:56;;;;;;;15.07;7.88;;;8.60;99.90;;;;;;5093986;28;20028;-68
2021/12/17 05:31:22;;;;;;;15.15;7.80;;;8.60;99.90;;;;;;5093075;28;20036;-68
2021/12/17 05:33:49;;;;;;;15.13;7.43;;;8.60;99.90;;;;;;5093425;28;20113;-68
2021/12/17 05:36:15;;;;;;;13.32;7.60;;;8.50;99.90;;;;;;5093377;28;20362;-68
2021/12/17 05:38:41;;;;;;;12.63;7.60;;;8.60;99.90;;;;;;5093574;28;20040;-68
2021/12/17 05:41:06;;;;;;;13.77;8.30;;;8.60;99.90;;;;;;5094164;28;20067;-68
2021/12/17 05:43:36;;;;;;;15.55;7.97;;;8.70;99.90;;;;;;5093657;28;20035;-69
2021/12/17 05:46:09;;;;;;;13.20;7.88;;;8.60;99.90;;;;;;5093252;28;20048;-68
2021/12/17 05:48:35;;;;;;;14.13;7.75;;;8.60;99.90;;;;;;5092932;28;20679;-69
2021/12/17 05:51:04;;;;;;;16.63;8.38;;;8.60;99.90;;;;;;5084795;28;20493;-69
2021/12/17 05:53:29;;;;;;;13.43;7.63;;;8.60;99.90;;;;;;5072870;28;20043;-68
2021/12/17 05:55:56;;;;;;;15.70;8.65;;;8.60;99.90;;;;;;5075997;28;20032;-69
2021/12/17 05:58:23;;;;;;;14.07;7.35;;;8.60;99.90;;;;;;5072066;28;20094;-68
2021/12/17 06:00:48;;;;;;;14.85;7.90;;;8.60;99.90;;;;;;5076273;28;20032;-68
2021/12/17 06:03:15;;;;;;;13.10;7.70;;;8.60;99.90;;;;;;5092625;28;20047;-68
2021/12/17 06:05:40;;;;;;;12.77;7.38;;;8.70;99.90;;;;;;5088854;28;20036;-68
2021/12/17 06:08:06;;;;;;;13.30;7.10;;;8.80;99.90;;;;;;5073027;28;20166;-68
2021/12/17 06:10:32;;;;;;;11.73;6.65;;;8.70;99.90;;;;;;5072755;28;20052;-68
2021/12/17 06:12:58;;;;;;;12.93;6.68;;;8.80;99.90;;;;;;5072909;28;20048;-69
2021/12/17 06:15:25;;;;;;;13.07;6.93;;;8.80;99.90;;;;;;5073860;28;20032;-69
2021/12/17 06:17:52;;;;;;;13.70;6.85;;;8.80;99.90;;;;;;5073422;28;20465;-69
2021/12/17 06:20:19;;;;;;;14.15;7.35;;;8.80;99.90;;;;;;5073148;28;20063;-68
2021/12/17 06:22:46;;;;;;;14.13;6.47;;;8.70;99.90;;;;;;5073192;28;20051;-67
2021/12/17 06:25:12;;;;;;;15.15;7.63;;;8.70;99.90;;;;;;5072663;28;20492;-68
2021/12/17 06:27:39;;;;;;;12.65;6.82;;;8.70;99.90;;;;;;5093518;28;20407;-68
2021/12/17 06:30:07;;;;;;;12.85;7.22;;;8.70;99.90;;;;;;5093507;28;20093;-68
2021/12/17 06:32:33;;;;;;;12.25;6.93;;;8.70;99.90;;;;;;5092926;28;20036;-66
2021/12/17 06:34:58;;;;;;;14.70;7.68;;;8.70;99.90;;;;;;5093088;28;20050;-68
2021/12/17 06:37:24;;;;;;;14.70;6.97;;;8.80;99.90;;;;;;5093017;28;20036;-67
2021/12/17 06:39:50;;;;;;;14.50;6.80;;;8.80;99.90;;;;;;5092764;28;20055;-67
2021/12/17 06:42:17;;;;;;;15.18;7.28;;;8.70;99.90;;;;;;5093231;28;20079;-67
2021/12/17 06:44:45;;;;;;;13.63;6.80;;;8.70;99.90;;;;;;5096063;28;20123;-67
2021/12/17 06:47:23;;;;;;;12.93;7.35;;;8.70;99.90;;;;;;5096480;28;20477;-67
2021/12/17 06:54:37;;;;;;;14.55;6.97;;;8.70;99.90;;;;;;5087060;28;20076;-67
2021/12/17 06:58:40;;;;;;;19.85;8.93;;;8.60;99.90;;;;;;5097158;28;20040;-67
2021/12/17 07:06:21;;;;;;;17.10;8.23;;;8.40;99.90;;;;;;5096173;28;20044;-68
2021/12/17 07:34:50;;;;;;;17.42;8.43;;;8.30;99.90;;;;;;5077720;28;20055;-67
2021/12/17 07:39:42;;;;;;;15.52;8.13;;;8.30;99.90;;;;;;5095607;28;20069;-67
2021/12/17 07:42:08;;;;;;;17.00;8.52;;;8.30;99.90;;;;;;5094998;28;20032;-67
2021/12/17 07:44:34;;;;;;;16.27;8.48;;;8.30;99.90;;;;;;5095078;28;20031;-67
2021/12/17 07:47:00;;;;;;;15.77;8.52;;;8.20;99.90;;;;;;5094964;28;20560;-67
2021/12/17 07:49:26;;;;;;;17.05;8.10;;;8.20;99.90;;;;;;5095768;28;20032;-67
2021/12/17 07:51:52;;;;;;;15.27;7.53;;;8.20;99.90;;;;;;5095745;28;20460;-67
2021/12/17 07:54:18;;;;;;;17.25;8.50;;;8.30;99.90;;;;;;5094961;28;20032;-67
2021/12/17 07:56:44;;;;;;;14.82;8.18;;;8.20;99.90;;;;;;5094433;28;20059;-67
2021/12/17 07:59:12;;;;;;;17.70;8.80;;;8.20;99.90;;;;;;5086175;28;20071;-69
2021/12/17 08:01:38;;;;;;;17.63;9.25;;;8.20;99.90;;;;;;5075209;28;20045;-68
2021/12/17 08:04:05;;;;;;;20.30;8.95;;;8.20;99.90;;;;;;5075260;28;20055;-67
2021/12/17 08:06:31;;;;;;;16.70;9.18;;;8.20;99.90;;;;;;5084256;28;20430;-68
2021/12/17 08:08:57;;;;;;;18.70;9.25;;;8.20;99.90;;;;;;5095170;28;20040;-67
2021/12/17 08:11:23;;;;;;;16.02;8.50;;;8.20;99.90;;;;;;5085104;28;20682;-66
2021/12/17 08:13:50;;;;;;;19.73;9.73;;;8.20;99.90;;;;;;5073629;28;20030;-68
2021/12/17 08:17:11;;;;;;;18.38;8.90;;;8.20;99.90;;;;;;5074863;28;20048;-67
2021/12/17 08:29:27;;;;;;;17.40;8.38;;;8.30;99.90;;;;;;5094932;28;20047;-68
2021/12/17 08:31:54;;;;;;;22.25;9.68;;;8.30;99.90;;;;;;5094799;28;20081;-67
2021/12/17 08:34:20;;;;;;;17.20;8.60;;;8.30;99.90;;;;;;5095016;28;20115;-68
2021/12/17 08:36:46;;;;;;;16.95;8.38;;;8.30;99.90;;;;;;5093920;28;20485;-67
2021/12/17 08:39:11;;;;;;;16.33;8.60;;;8.30;99.90;;;;;;5094370;28;20131;-67
2021/12/17 08:41:41;;;;;;;17.33;8.45;;;8.40;99.90;;;;;;5094690;28;20104;-67
2021/12/17 08:44:08;;;;;;;14.85;8.30;;;8.40;99.90;;;;;;5094988;28;20040;-67
2021/12/17 08:46:35;;;;;;;15.98;8.10;;;8.40;99.90;;;;;;5092795;28;20048;-67
2021/12/17 08:49:01;;;;;;;16.48;8.23;;;8.40;99.90;;;;;;5094754;28;20043;-67
2021/12/17 08:51:26;;;;;;;18.88;8.85;;;8.50;99.90;;;;;;5094373;28;20131;-67
2021/12/17 08:53:52;;;;;;;19.00;8.25;;;8.50;99.90;;;;;;5092534;28;20047;-65
2021/12/17 08:56:20;;;;;;;16.45;8.02;;;8.50;99.90;;;;;;5081533;28;20040;-68
2021/12/17 08:58:47;;;;;;;15.75;7.70;;;8.50;99.90;;;;;;5093941;28;20032;-67
2021/12/17 09:01:12;;;;;;;15.70;7.85;;;8.50;99.90;;;;;;5078533;28;20024;-67
2021/12/17 09:03:38;;;;;;;17.17;8.18;;;8.50;99.90;;;;;;5074251;28;20124;-67
2021/12/17 09:06:04;;;;;;;15.15;8.05;;;8.50;99.90;;;;;;5079951;28;20040;-67
2021/12/17 09:08:29;;;;;;;16.15;8.30;;;8.60;99.90;;;;;;5094195;28;20188;-66
2021/12/17 09:10:56;;;;;;;19.23;8.20;;;8.50;99.90;;;;;;5094352;28;20043;-67
2021/12/17 09:13:26;;;;;;;15.85;8.13;;;8.60;99.90;;;;;;5093832;28;20036;-67
2021/12/17 09:15:57;;;;;;;16.73;9.13;;;8.60;99.90;;;;;;5093490;28;20047;-67
2021/12/17 09:18:22;;;;;;;18.02;9.10;;;8.60;99.90;;;;;;5094150;28;20040;-67
2021/12/17 09:20:48;;;;;;;15.48;8.77;;;8.60;99.90;;;;;;5093632;28;20060;-67
2021/12/17 09:23:14;;;;;;;16.27;8.55;;;8.60;99.90;;;;;;5082758;28;20470;-66
2021/12/17 09:25:40;;;;;;;15.27;8.52;;;8.60;99.90;;;;;;5076273;28;20142;-67
2021/12/17 09:28:06;;;;;;;15.70;8.30;;;8.50;99.90;;;;;;5093921;28;20044;-67
2021/12/17 09:30:32;;;;;;;16.70;8.70;;;8.50;99.90;;;;;;5092940;28;20054;-67
2021/12/17 09:32:57;;;;;;;17.23;8.57;;;8.50;99.90;;;;;;5078781;28;20066;-68
2021/12/17 09:35:24;;;;;;;18.77;9.63;;;8.60;99.90;;;;;;5073574;28;20040;-67
2021/12/17 09:37:51;;;;;;;20.52;10.00;;;8.50;99.90;;;;;;5092797;28;20046;-67
2021/12/17 09:40:17;;;;;;;18.67;9.77;;;8.50;99.90;;;;;;5086194;28;20442;-71
2021/12/17 09:42:45;;;;;;;21.90;10.55;;;8.50;99.90;;;;;;5071698;28;20072;-68
2021/12/17 09:45:12;;;;;;;20.77;10.48;;;8.50;99.90;;;;;;5087930;28;20337;-67
2021/12/17 09:47:39;;;;;;;24.10;10.38;;;8.50;99.90;;;;;;5085411;28;20036;-67
2021/12/17 09:50:07;;;;;;;23.33;10.20;;;8.50;99.90;;;;;;5072462;28;20040;-67
2021/12/17 09:52:33;;;;;;;18.88;9.50;;;8.60;99.90;;;;;;5073317;28;20048;-67
2021/12/17 09:55:00;;;;;;;18.30;9.05;;;8.50;99.90;;;;;;5072138;28;20082;-67
2021/12/17 09:57:26;;;;;;;20.20;9.15;;;8.60;99.90;;;;;;5090671;28;20040;-67
2021/12/17 09:59:53;;;;;;;21.40;9.90;;;8.60;99.90;;;;;;5093565;28;20074;-67
2021/12/17 10:02:20;;;;;;;21.35;10.10;;;8.60;99.90;;;;;;5093247;28;20441;-67
2021/12/17 10:04:46;;;;;;;18.20;9.23;;;8.60;99.90;;;;;;5093028;28;20050;-68
2021/12/17 10:07:19;;;;;;;18.20;9.60;;;8.70;99.90;;;;;;5093190;28;20567;-67
2021/12/17 10:09:58;;;;;;;16.98;9.07;;;8.70;99.90;;;;;;5092269;28;20076;-68
2021/12/17 10:12:25;;;;;;;20.48;9.98;;;8.70;99.90;;;;;;5078039;28;20040;-67
2021/12/17 10:15:12;;;;;;;20.10;9.25;;;8.70;99.90;;;;;;5072951;28;20040;-67
2021/12/17 10:18:01;;;;;;;17.52;8.75;;;8.70;99.90;;;;;;5092286;28;20046;-67
2021/12/17 10:20:29;;;;;;;18.35;9.63;;;8.70;99.90;;;;;;5097179;28;20127;-67
2021/12/17 10:23:01;;;;;;;18.02;8.65;;;8.80;99.90;;;;;;5097595;28;20115;-67
2021/12/17 10:25:28;;;;;;;15.88;8.15;;;8.80;99.90;;;;;;5095577;28;20453;-67
2021/12/17 10:27:59;;;;;;;20.63;9.63;;;8.90;99.90;;;;;;5094637;28;20075;-68
2021/12/17 10:30:27;;;;;;;18.55;9.13;;;8.80;99.90;;;;;;5076700;28;20032;-67
2021/12/17 10:32:56;;;;;;;18.75;8.95;;;8.80;99.90;;;;;;5076667;28;20040;-67
2021/12/17 10:35:24;;;;;;;18.25;9.18;;;8.90;99.90;;;;;;5076774;28;20032;-67
2021/12/17 10:37:57;;;;;;;17.95;9.25;;;8.90;99.90;;;;;;5096743;28;20100;-66
2021/12/17 10:40:34;;;;;;;18.88;9.63;;;9.00;99.90;;;;;;5085006;28;20113;-66
2021/12/17 10:43:08;;;;;;;18.77;9.48;;;9.00;99.90;;;;;;5076554;28;20756;-67
2021/12/17 10:45:45;;;;;;;16.02;9.65;;;9.00;99.90;;;;;;5094196;28;20043;-67
2021/12/17 10:51:16;;;;;;;15.07;8.52;;;9.00;99.90;;;;;;5097081;28;20044;-67
2021/12/17 10:53:50;;;;;;;15.93;8.15;;;9.00;99.90;;;;;;5085547;28;20083;-67
2021/12/17 10:56:17;;;;;;;16.55;8.45;;;9.00;99.90;;;;;;5082132;28;20063;-65
2021/12/17 10:59:06;;;;;;;16.35;7.93;;;9.10;99.90;;;;;;5076285;28;20049;-67
2021/12/17 11:01:58;;;;;;;15.80;7.97;;;9.10;99.90;;;;;;5074960;28;20048;-67
2021/12/17 11:04:27;;;;;;;18.05;8.90;;;9.10;99.90;;;;;;5075528;28;20135;-67
2021/12/17 11:06:52;;;;;;;14.52;7.82;;;9.10;99.90;;;;;;5087391;28;20040;-69
2021/12/17 11:09:34;;;;;;;13.05;7.68;;;9.10;99.90;;;;;;5096276;28;20044;-67
2021/12/17 11:12:12;;;;;;;15.55;7.75;;;9.10;99.90;;;;;;5096629;28;20048;-66
2021/12/17 11:14:38;;;;;;;14.73;8.52;;;9.10;99.90;;;;;;5076031;28;20087;-67
2021/12/17 11:17:04;;;;;;;17.02;8.43;;;9.10;99.90;;;;;;5083095;28;20160;-66
2021/12/17 11:19:30;;;;;;;16.52;8.15;;;9.30;99.90;;;;;;5075820;28;20552;-67
2021/12/17 11:21:56;;;;;;;15.93;8.32;;;9.20;99.90;;;;;;5075644;28;20052;-67
2021/12/17 11:24:23;;;;;;;14.30;8.25;;;9.20;99.90;;;;;;5075780;28;20066;-66
2021/12/17 11:26:50;;;;;;;14.50;7.90;;;9.20;99.90;;;;;;5087152;28;20044;-66
2021/12/17 11:29:17;;;;;;;17.45;8.63;;;9.20;99.90;;;;;;5095251;28;20043;-66
2021/12/17 11:31:43;;;;;;;17.95;8.25;;;9.20;99.90;;;;;;5075728;28;20036;-66
2021/12/17 11:34:09;;;;;;;13.82;7.72;;;9.20;99.90;;;;;;5090880;28;20072;-67
2021/12/17 11:36:35;;;;;;;17.00;8.25;;;9.20;99.90;;;;;;5094455;28;20047;-67
2021/12/17 11:39:21;;;;;;;14.30;8.63;;;9.20;99.90;;;;;;5095679;28;20032;-66
2021/12/17 11:42:18;;;;;;;14.65;8.88;;;9.30;99.90;;;;;;5077210;28;20063;-66
2021/12/17 11:45:23;;;;;;;16.05;8.95;;;9.30;99.90;;;;;;5086375;28;20063;-67
2021/12/17 11:47:38;;;;;;;15.00;8.32;;;9.30;99.90;;;;;;5095430;28;20052;-66
2021/12/17 11:50:06;;;;;;;12.45;6.93;;;9.30;99.90;;;;;;5095845;28;20036;-67
2021/12/17 11:52:35;;;;;;;14.50;8.10;;;9.40;99.90;;;;;;5095454;28;20036;-66
2021/12/17 11:55:33;;;;;;;13.73;8.38;;;9.40;99.90;;;;;;5078119;28;20036;-67
2021/12/17 11:58:06;;;;;;;13.48;7.13;;;9.40;99.90;;;;;;5075945;28;20029;-66
2021/12/17 12:00:52;;;;;;;13.82;8.07;;;9.40;99.90;;;;;;5075129;28;20174;-66
2021/12/17 12:03:21;;;;;;;13.90;7.60;;;9.50;99.90;;;;;;5074601;28;20736;-66
2021/12/17 12:05:51;;;;;;;14.13;8.02;;;9.50;99.90;;;;;;5076934;28;20354;-66
2021/12/17 12:08:38;;;;;;;13.43;7.57;;;9.50;99.90;;;;;;5095445;28;20036;-66
2021/12/17 12:11:17;;;;;;;13.32;7.70;;;9.50;99.90;;;;;;5075436;28;20286;-65
2021/12/17 12:13:44;;;;;;;13.98;8.05;;;9.60;99.90;;;;;;5074910;28;20036;-66
2021/12/17 12:16:15;;;;;;;14.43;9.68;;;9.60;99.90;;;;;;5075424;28;20036;-66
2021/12/17 12:18:52;;;;;;;13.38;8.27;;;9.60;99.90;;;;;;5074848;28;20060;-67
2021/12/17 12:21:31;;;;;;;13.27;7.38;;;9.60;99.90;;;;;;5073586;28;20090;-66
2021/12/17 12:24:10;;;;;;;13.70;8.13;;;9.60;99.90;;;;;;5074321;28;20393;-67
2021/12/17 12:26:46;;;;;;;12.77;7.28;;;9.60;99.90;;;;;;5079987;28;20469;-69
2021/12/17 12:29:24;;;;;;;15.80;8.57;;;9.60;99.90;;;;;;5074217;28;20438;-65
2021/12/17 12:31:49;;;;;;;13.65;7.32;;;9.60;99.90;;;;;;5074812;28;20040;-67
2021/12/17 12:34:21;;;;;;;13.07;7.60;;;9.70;99.90;;;;;;5074211;28;20047;-67
2021/12/17 12:37:07;;;;;;;15.77;7.68;;;9.60;99.90;;;;;;5084769;28;20444;-67
2021/12/17 12:39:45;;;;;;;15.45;7.78;;;9.60;99.90;;;;;;5094763;28;20130;-66
2021/12/17 12:42:26;;;;;;;14.10;8.13;;;9.70;99.90;;;;;;5085043;28;20158;-66
2021/12/17 12:44:52;;;;;;;20.67;8.95;;;9.70;99.90;;;;;;5075843;28;20082;-68
2021/12/17 12:47:20;;;;;;;15.25;8.75;;;9.70;99.90;;;;;;5088978;28;20047;-67
2021/12/17 12:49:51;;;;;;;16.10;8.48;;;9.80;99.90;;;;;;5094693;28;20050;-67
2021/12/17 12:52:31;;;;;;;17.67;9.35;;;9.80;99.90;;;;;;5094441;28;20036;-67
2021/12/17 12:55:19;;;;;;;14.95;7.95;;;9.80;99.90;;;;;;5094168;28;20050;-68
2021/12/17 12:57:52;;;;;;;14.18;8.82;;;9.80;99.90;;;;;;5087750;28;20048;-67
2021/12/17 13:00:20;;;;;;;15.68;8.70;;;9.80;99.90;;;;;;5092916;28;20036;-68
2021/12/17 13:02:50;;;;;;;13.30;7.82;;;9.70;99.90;;;;;;5094307;28;20361;-67
2021/12/17 13:05:16;;;;;;;13.68;8.40;;;9.70;99.90;;;;;;5082828;28;20064;-67
2021/12/17 13:07:43;;;;;;;15.18;8.70;;;9.80;99.90;;;;;;5074856;28;20028;-67
2021/12/17 13:10:19;;;;;;;15.60;8.93;;;9.80;99.90;;;;;;5073580;28;20141;-67
2021/12/17 13:12:50;;;;;;;15.23;8.75;;;9.80;99.90;;;;;;5073806;28;20415;-67
2021/12/17 13:15:30;;;;;;;16.17;8.88;;;9.80;99.90;;;;;;5073578;28;20050;-67
2021/12/17 13:24:10;;;;;;;14.98;8.70;;;9.70;99.90;;;;;;5073798;28;20040;-67
2021/12/17 13:26:38;;;;;;;15.07;8.25;;;9.70;99.90;;;;;;5082684;28;20036;-67
2021/12/17 13:29:14;;;;;;;12.10;7.88;;;9.80;99.90;;;;;;5093725;28;20032;-67
2021/12/17 13:32:06;;;;;;;13.93;8.32;;;9.60;99.90;;;;;;5093838;28;20036;-67
2021/12/17 13:34:38;;;;;;;16.63;9.48;;;9.70;99.90;;;;;;5089671;28;20135;-67
2021/12/17 13:37:24;;;;;;;15.10;9.40;;;9.60;99.90;;;;;;5093365;28;20054;-66
2021/12/17 13:39:54;;;;;;;16.35;8.73;;;9.60;99.90;;;;;;5093746;28;20035;-66
2021/12/17 13:42:22;;;;;;;18.52;9.65;;;9.60;99.90;;;;;;5089240;28;20524;-66
2021/12/17 13:45:16;;;;;;;14.73;8.98;;;9.70;99.90;;;;;;5084629;28;20417;-66
2021/12/17 13:47:47;;;;;;;14.43;8.15;;;9.70;99.90;;;;;;5078100;28;20067;-66
2021/12/17 13:50:25;;;;;;;14.43;8.18;;;9.80;99.90;;;;;;5073471;28;20335;-67
2021/12/17 13:52:54;;;;;;;14.68;8.50;;;9.70;99.90;;;;;;5072523;28;20033;-67
2021/12/17 13:55:25;;;;;;;11.38;7.90;;;9.70;99.90;;;;;;5073090;28;20182;-67
2021/12/17 13:57:51;;;;;;;13.60;8.30;;;9.70;99.90;;;;;;5092475;28;20134;-67
2021/12/17 14:00:21;;;;;;;15.63;8.55;;;9.70;99.90;;;;;;5092125;28;20131;-68
2021/12/17 14:02:49;;;;;;;12.60;8.00;;;9.70;99.90;;;;;;5093663;28;20086;-67
2021/12/17 14:05:28;;;;;;;14.15;9.00;;;9.70;99.90;;;;;;5093049;28;20100;-68
2021/12/17 14:07:59;;;;;;;12.98;8.77;;;9.60;99.90;;;;;;5093183;28;20478;-67
2021/12/17 14:10:36;;;;;;;17.05;10.65;;;9.60;99.90;;;;;;5093778;28;20046;-67
2021/12/17 14:13:03;;;;;;;14.82;9.82;;;9.60;99.90;;;;;;5093321;28;20506;-67
2021/12/17 14:15:35;;;;;;;15.57;10.35;;;9.60;99.90;;;;;;5093295;28;20109;-67
2021/12/17 14:18:07;;;;;;;17.23;11.10;;;9.60;99.90;;;;;;5092864;28;20039;-67
2021/12/17 14:20:41;;;;;;;17.92;10.63;;;9.60;99.90;;;;;;5093324;28;20534;-67
2021/12/17 14:23:10;;;;;;;17.45;11.35;;;9.60;99.90;;;;;;5093121;28;20504;-67
2021/12/17 14:25:41;;;;;;;14.50;9.85;;;9.60;99.90;;;;;;5092933;28;20032;-67
2021/12/17 14:28:22;;;;;;;15.57;10.13;;;9.60;99.90;;;;;;5093297;28;20032;-67
2021/12/17 14:31:05;;;;;;;14.48;9.82;;;9.60;99.90;;;;;;5093252;28;20032;-67
2021/12/17 14:33:54;;;;;;;14.88;9.45;;;9.60;99.90;;;;;;5074247;28;20040;-67
2021/12/17 14:36:36;;;;;;;15.18;8.85;;;9.60;99.90;;;;;;5078725;28;20051;-65
2021/12/17 14:39:15;;;;;;;15.15;9.73;;;9.60;99.90;;;;;;5092645;28;20058;-67
2021/12/17 14:41:54;;;;;;;14.60;9.70;;;9.60;99.90;;;;;;5093249;28;20119;-65
2021/12/17 15:00:44;;;;;;;13.68;9.20;;;9.60;99.90;;;;;;5081715;28;20052;-66
2021/12/17 15:03:40;;;;;;;14.20;9.20;;;9.60;99.90;;;;;;5091422;28;20465;-65
2021/12/17 15:06:08;;;;;;;14.20;8.95;;;9.60;99.90;;;;;;5095196;28;20052;-66
2021/12/17 15:08:34;;;;;;;12.88;8.95;;;9.60;99.90;;;;;;5096770;28;20059;-66
2021/12/17 15:11:09;;;;;;;13.13;8.23;;;9.60;99.90;;;;;;5087264;28;20429;-67
2021/12/17 15:13:35;;;;;;;11.13;7.90;;;9.60;99.90;;;;;;5093182;28;20048;-67
2021/12/17 15:16:02;;;;;;;13.27;8.52;;;9.60;99.90;;;;;;5095665;28;20044;-67
2021/12/17 15:18:29;;;;;;;13.82;8.73;;;9.60;99.90;;;;;;5096125;28;20115;-67
2021/12/17 15:20:56;;;;;;;13.55;8.15;;;9.60;99.90;;;;;;5094933;28;20044;-66
2021/12/17 15:23:23;;;;;;;11.32;8.43;;;9.60;99.90;;;;;;5078261;28;20091;-66
2021/12/17 15:25:51;;;;;;;10.50;7.80;;;9.60;99.90;;;;;;5076694;28;20107;-67
2021/12/17 15:28:22;;;;;;;12.32;8.65;;;9.60;99.90;;;;;;5096063;28;20072;-67
2021/12/17 15:30:50;;;;;;;12.38;8.68;;;9.60;99.90;;;;;;5095750;28;20036;-66
2021/12/17 15:33:16;;;;;;;13.13;8.32;;;9.70;99.90;;;;;;5096109;28;20111;-67
2021/12/17 15:35:44;;;;;;;11.65;7.80;;;9.70;99.90;;;;;;5095656;28;20123;-67
2021/12/17 15:38:11;;;;;;;10.35;7.50;;;9.70;99.90;;;;;;5095705;28;20131;-67
2021/12/17 15:40:42;;;;;;;12.82;6.75;;;9.70;99.90;;;;;;5094796;28;20079;-67
2021/12/17 15:43:09;;;;;;;9.38;6.30;;;9.80;99.90;;;;;;5096140;28;20127;-66
2021/12/17 15:45:39;;;;;;;10.35;6.80;;;9.80;99.90;;;;;;5095276;28;20052;-66
2021/12/17 15:48:06;;;;;;;8.85;6.25;;;9.80;99.90;;;;;;5094670;28;20064;-66
2021/12/17 15:50:32;;;;;;;9.98;7.00;;;9.80;99.90;;;;;;5095468;28;20044;-67
2021/12/17 15:52:58;;;;;;;12.98;7.85;;;9.70;99.90;;;;;;5095472;28;20164;-65
2021/12/17 15:55:26;;;;;;;11.57;8.45;;;9.80;99.90;;;;;;5094955;28;20062;-63
2021/12/17 15:57:56;;;;;;;12.88;7.72;;;9.80;99.90;;;;;;5093584;28;20044;-66
2021/12/17 16:00:24;;;;;;;12.10;8.50;;;9.70;99.90;;;;;;5075736;28;20142;-66